sensor_id;sensor_type;location;lat;lon;timestamp;P1;durP1;ratioP1;P2;durP2;ratioP2
37609;SDS011;23457;51.966;8.230;2022-07-05T00:01:19;3.58;;;1.55;;
37609;SDS011;23457;51.966;8.230;2022-07-05T00:03:45;3.25;;;1.27;;
37609;SDS011;23457;51.966;8.230;2022-07-05T00:06:12;2.53;;;1.40;;
37609;SDS011;23457;51.966;8.230;2022-07-05T00:08:39;3.92;;;1.73;;
37609;SDS011;23457;51.966;8.230;2022-07-05T00:11:05;2.30;;;1.63;;
37609;SDS011;23457;51.966;8.230;2022-07-05T00:13:32;3.10;;;1.40;;
37609;SDS011;23457;51.966;8.230;2022-07-05T00:15:59;3.08;;;1.88;;
37609;SDS011;23457;51.966;8.230;2022-07-05T00:18:25;4.47;;;1.70;;
37609;SDS011;23457;51.966;8.230;2022-07-05T00:20:52;3.17;;;1.67;;
37609;SDS011;23457;51.966;8.230;2022-07-05T00:23:18;4.50;;;1.60;;
37609;SDS011;23457;51.966;8.230;2022-07-05T00:25:45;2.22;;;1.50;;
37609;SDS011;23457;51.966;8.230;2022-07-05T00:28:11;4.63;;;1.60;;
37609;SDS011;23457;51.966;8.230;2022-07-05T00:30:39;4.63;;;1.70;;
37609;SDS011;23457;51.966;8.230;2022-07-05T00:33:06;3.28;;;1.55;;
37609;SDS011;23457;51.966;8.230;2022-07-05T00:35:33;3.97;;;1.60;;
37609;SDS011;23457;51.966;8.230;2022-07-05T00:37:59;1.90;;;1.70;;
37609;SDS011;23457;51.966;8.230;2022-07-05T00:40:26;3.28;;;1.65;;
37609;SDS011;23457;51.966;8.230;2022-07-05T00:42:52;2.50;;;1.45;;
37609;SDS011;23457;51.966;8.230;2022-07-05T00:45:19;3.67;;;1.73;;
37609;SDS011;23457;51.966;8.230;2022-07-05T00:47:47;3.42;;;1.70;;
37609;SDS011;23457;51.966;8.230;2022-07-05T00:50:14;4.60;;;1.70;;
37609;SDS011;23457;51.966;8.230;2022-07-05T00:52:40;6.88;;;2.40;;
37609;SDS011;23457;51.966;8.230;2022-07-05T00:55:07;4.93;;;1.70;;
37609;SDS011;23457;51.966;8.230;2022-07-05T00:57:34;6.32;;;1.90;;
37609;SDS011;23457;51.966;8.230;2022-07-05T01:00:01;5.72;;;1.80;;
37609;SDS011;23457;51.966;8.230;2022-07-05T01:02:27;3.30;;;1.75;;
37609;SDS011;23457;51.966;8.230;2022-07-05T01:04:54;3.15;;;1.60;;
37609;SDS011;23457;51.966;8.230;2022-07-05T01:07:21;4.22;;;1.73;;
37609;SDS011;23457;51.966;8.230;2022-07-05T01:09:49;3.65;;;1.90;;
37609;SDS011;23457;51.966;8.230;2022-07-05T01:12:16;3.17;;;2.00;;
37609;SDS011;23457;51.966;8.230;2022-07-05T01:14:43;3.78;;;1.42;;
37609;SDS011;23457;51.966;8.230;2022-07-05T01:17:12;2.90;;;1.70;;
37609;SDS011;23457;51.966;8.230;2022-07-05T01:19:38;3.28;;;1.95;;
37609;SDS011;23457;51.966;8.230;2022-07-05T01:22:06;4.10;;;2.05;;
37609;SDS011;23457;51.966;8.230;2022-07-05T01:24:41;4.45;;;2.15;;
37609;SDS011;23457;51.966;8.230;2022-07-05T01:27:09;6.00;;;2.00;;
37609;SDS011;23457;51.966;8.230;2022-07-05T01:29:35;2.72;;;1.77;;
37609;SDS011;23457;51.966;8.230;2022-07-05T01:32:02;3.08;;;1.80;;
37609;SDS011;23457;51.966;8.230;2022-07-05T01:34:29;3.00;;;1.80;;
37609;SDS011;23457;51.966;8.230;2022-07-05T01:36:55;5.65;;;2.20;;
37609;SDS011;23457;51.966;8.230;2022-07-05T01:39:22;3.70;;;2.25;;
37609;SDS011;23457;51.966;8.230;2022-07-05T01:41:48;4.68;;;1.70;;
37609;SDS011;23457;51.966;8.230;2022-07-05T01:44:15;4.35;;;2.03;;
37609;SDS011;23457;51.966;8.230;2022-07-05T01:46:42;10.45;;;2.20;;
37609;SDS011;23457;51.966;8.230;2022-07-05T01:49:11;2.60;;;1.90;;
37609;SDS011;23457;51.966;8.230;2022-07-05T01:51:57;3.85;;;2.00;;
37609;SDS011;23457;51.966;8.230;2022-07-05T01:54:28;3.33;;;2.00;;
37609;SDS011;23457;51.966;8.230;2022-07-05T01:56:54;3.80;;;1.90;;
37609;SDS011;23457;51.966;8.230;2022-07-05T01:59:21;3.63;;;1.80;;
37609;SDS011;23457;51.966;8.230;2022-07-05T02:01:47;4.50;;;2.05;;
37609;SDS011;23457;51.966;8.230;2022-07-05T02:04:14;5.30;;;3.15;;
37609;SDS011;23457;51.966;8.230;2022-07-05T02:06:42;5.18;;;2.60;;
37609;SDS011;23457;51.966;8.230;2022-07-05T02:09:11;4.63;;;2.55;;
37609;SDS011;23457;51.966;8.230;2022-07-05T02:11:37;5.93;;;2.38;;
37609;SDS011;23457;51.966;8.230;2022-07-05T02:14:04;4.72;;;2.22;;
37609;SDS011;23457;51.966;8.230;2022-07-05T02:16:31;3.72;;;1.98;;
37609;SDS011;23457;51.966;8.230;2022-07-05T02:18:57;4.90;;;2.05;;
37609;SDS011;23457;51.966;8.230;2022-07-05T02:21:24;3.55;;;2.25;;
37609;SDS011;23457;51.966;8.230;2022-07-05T02:23:51;2.85;;;2.25;;
37609;SDS011;23457;51.966;8.230;2022-07-05T02:26:18;3.05;;;2.38;;
37609;SDS011;23457;51.966;8.230;2022-07-05T02:28:44;4.13;;;2.28;;
37609;SDS011;23457;51.966;8.230;2022-07-05T02:31:11;3.58;;;2.17;;
37609;SDS011;23457;51.966;8.230;2022-07-05T02:33:38;3.10;;;2.38;;
37609;SDS011;23457;51.966;8.230;2022-07-05T02:36:05;4.60;;;2.20;;
37609;SDS011;23457;51.966;8.230;2022-07-05T02:38:33;2.33;;;2.13;;
37609;SDS011;23457;51.966;8.230;2022-07-05T02:40:59;4.47;;;2.58;;
37609;SDS011;23457;51.966;8.230;2022-07-05T02:43:26;4.47;;;2.72;;
37609;SDS011;23457;51.966;8.230;2022-07-05T02:45:53;2.95;;;2.17;;
37609;SDS011;23457;51.966;8.230;2022-07-05T02:48:19;4.40;;;2.33;;
37609;SDS011;23457;51.966;8.230;2022-07-05T02:50:46;5.28;;;2.65;;
37609;SDS011;23457;51.966;8.230;2022-07-05T02:53:14;3.35;;;2.25;;
37609;SDS011;23457;51.966;8.230;2022-07-05T02:55:40;4.28;;;1.95;;
37609;SDS011;23457;51.966;8.230;2022-07-05T02:58:07;3.33;;;2.20;;
37609;SDS011;23457;51.966;8.230;2022-07-05T03:00:33;2.70;;;2.30;;
37609;SDS011;23457;51.966;8.230;2022-07-05T03:03:00;3.08;;;2.05;;
37609;SDS011;23457;51.966;8.230;2022-07-05T03:05:26;6.10;;;2.28;;
37609;SDS011;23457;51.966;8.230;2022-07-05T03:07:53;3.58;;;2.45;;
37609;SDS011;23457;51.966;8.230;2022-07-05T03:10:19;4.15;;;2.00;;
37609;SDS011;23457;51.966;8.230;2022-07-05T03:12:46;3.25;;;2.20;;
37609;SDS011;23457;51.966;8.230;2022-07-05T03:15:13;3.92;;;2.00;;
37609;SDS011;23457;51.966;8.230;2022-07-05T03:17:39;3.92;;;2.40;;
37609;SDS011;23457;51.966;8.230;2022-07-05T03:20:06;4.15;;;2.30;;
37609;SDS011;23457;51.966;8.230;2022-07-05T03:22:33;3.80;;;2.40;;
37609;SDS011;23457;51.966;8.230;2022-07-05T03:24:59;3.65;;;2.50;;
37609;SDS011;23457;51.966;8.230;2022-07-05T03:27:26;3.65;;;2.85;;
37609;SDS011;23457;51.966;8.230;2022-07-05T03:29:52;3.92;;;2.35;;
37609;SDS011;23457;51.966;8.230;2022-07-05T03:32:19;5.80;;;2.67;;
37609;SDS011;23457;51.966;8.230;2022-07-05T03:34:46;6.70;;;2.97;;
37609;SDS011;23457;51.966;8.230;2022-07-05T03:37:12;5.20;;;2.95;;
37609;SDS011;23457;51.966;8.230;2022-07-05T03:39:39;3.92;;;2.95;;
37609;SDS011;23457;51.966;8.230;2022-07-05T03:42:06;5.60;;;3.10;;
37609;SDS011;23457;51.966;8.230;2022-07-05T03:44:33;8.82;;;2.72;;
37609;SDS011;23457;51.966;8.230;2022-07-05T03:46:59;4.53;;;2.63;;
37609;SDS011;23457;51.966;8.230;2022-07-05T03:49:26;8.40;;;3.25;;
37609;SDS011;23457;51.966;8.230;2022-07-05T03:51:53;5.03;;;2.53;;
37609;SDS011;23457;51.966;8.230;2022-07-05T03:54:19;11.55;;;2.95;;
37609;SDS011;23457;51.966;8.230;2022-07-05T03:56:46;4.43;;;2.70;;
37609;SDS011;23457;51.966;8.230;2022-07-05T03:59:12;4.53;;;3.00;;
37609;SDS011;23457;51.966;8.230;2022-07-05T04:01:39;4.95;;;3.10;;
37609;SDS011;23457;51.966;8.230;2022-07-05T04:04:05;5.70;;;3.30;;
37609;SDS011;23457;51.966;8.230;2022-07-05T04:06:32;7.10;;;3.10;;
37609;SDS011;23457;51.966;8.230;2022-07-05T04:08:59;7.10;;;3.05;;
37609;SDS011;23457;51.966;8.230;2022-07-05T04:11:25;4.28;;;3.17;;
37609;SDS011;23457;51.966;8.230;2022-07-05T04:13:52;3.55;;;3.22;;
37609;SDS011;23457;51.966;8.230;2022-07-05T04:16:19;5.95;;;2.90;;
37609;SDS011;23457;51.966;8.230;2022-07-05T04:18:46;5.05;;;3.08;;
37609;SDS011;23457;51.966;8.230;2022-07-05T04:21:13;6.63;;;3.33;;
37609;SDS011;23457;51.966;8.230;2022-07-05T04:23:40;5.43;;;3.67;;
37609;SDS011;23457;51.966;8.230;2022-07-05T04:26:06;4.55;;;3.45;;
37609;SDS011;23457;51.966;8.230;2022-07-05T04:28:33;5.93;;;3.60;;
37609;SDS011;23457;51.966;8.230;2022-07-05T04:30:59;7.20;;;3.72;;
37609;SDS011;23457;51.966;8.230;2022-07-05T04:33:26;5.35;;;3.17;;
37609;SDS011;23457;51.966;8.230;2022-07-05T04:35:53;9.63;;;4.18;;
37609;SDS011;23457;51.966;8.230;2022-07-05T04:38:20;5.38;;;3.70;;
37609;SDS011;23457;51.966;8.230;2022-07-05T04:40:47;3.85;;;3.08;;
37609;SDS011;23457;51.966;8.230;2022-07-05T04:43:13;7.57;;;3.78;;
37609;SDS011;23457;51.966;8.230;2022-07-05T04:45:40;4.25;;;2.75;;
37609;SDS011;23457;51.966;8.230;2022-07-05T04:48:06;7.20;;;3.20;;
37609;SDS011;23457;51.966;8.230;2022-07-05T04:50:33;9.43;;;3.05;;
37609;SDS011;23457;51.966;8.230;2022-07-05T04:52:59;5.43;;;3.40;;
37609;SDS011;23457;51.966;8.230;2022-07-05T04:55:26;4.15;;;3.25;;
37609;SDS011;23457;51.966;8.230;2022-07-05T04:57:52;8.70;;;3.50;;
37609;SDS011;23457;51.966;8.230;2022-07-05T05:00:19;5.13;;;3.20;;
37609;SDS011;23457;51.966;8.230;2022-07-05T05:02:45;5.50;;;3.03;;
37609;SDS011;23457;51.966;8.230;2022-07-05T05:05:12;7.38;;;3.72;;
37609;SDS011;23457;51.966;8.230;2022-07-05T05:07:42;9.23;;;3.15;;
37609;SDS011;23457;51.966;8.230;2022-07-05T05:10:10;6.68;;;3.28;;
37609;SDS011;23457;51.966;8.230;2022-07-05T05:12:37;6.82;;;3.90;;
37609;SDS011;23457;51.966;8.230;2022-07-05T05:15:03;5.78;;;3.05;;
37609;SDS011;23457;51.966;8.230;2022-07-05T05:17:38;6.68;;;3.33;;
37609;SDS011;23457;51.966;8.230;2022-07-05T05:20:06;8.38;;;3.45;;
37609;SDS011;23457;51.966;8.230;2022-07-05T05:22:37;9.18;;;3.45;;
37609;SDS011;23457;51.966;8.230;2022-07-05T05:25:04;7.53;;;3.00;;
37609;SDS011;23457;51.966;8.230;2022-07-05T05:27:30;6.63;;;2.72;;
37609;SDS011;23457;51.966;8.230;2022-07-05T05:29:57;5.35;;;2.80;;
37609;SDS011;23457;51.966;8.230;2022-07-05T05:32:23;4.35;;;2.85;;
37609;SDS011;23457;51.966;8.230;2022-07-05T05:34:50;5.03;;;2.95;;
37609;SDS011;23457;51.966;8.230;2022-07-05T05:37:16;6.00;;;2.88;;
37609;SDS011;23457;51.966;8.230;2022-07-05T05:39:43;5.40;;;2.85;;
37609;SDS011;23457;51.966;8.230;2022-07-05T05:42:10;3.42;;;2.90;;
37609;SDS011;23457;51.966;8.230;2022-07-05T05:44:36;4.43;;;2.55;;
37609;SDS011;23457;51.966;8.230;2022-07-05T05:47:03;5.32;;;2.67;;
37609;SDS011;23457;51.966;8.230;2022-07-05T05:49:30;5.35;;;2.55;;
37609;SDS011;23457;51.966;8.230;2022-07-05T05:51:56;4.60;;;1.75;;
37609;SDS011;23457;51.966;8.230;2022-07-05T05:54:23;5.55;;;2.10;;
37609;SDS011;23457;51.966;8.230;2022-07-05T05:56:49;7.57;;;2.70;;
37609;SDS011;23457;51.966;8.230;2022-07-05T05:59:16;2.70;;;2.25;;
37609;SDS011;23457;51.966;8.230;2022-07-05T06:01:42;4.05;;;2.17;;
37609;SDS011;23457;51.966;8.230;2022-07-05T06:04:09;4.82;;;2.60;;
37609;SDS011;23457;51.966;8.230;2022-07-05T06:06:39;7.10;;;2.50;;
37609;SDS011;23457;51.966;8.230;2022-07-05T06:09:06;4.18;;;1.90;;
37609;SDS011;23457;51.966;8.230;2022-07-05T06:11:32;1.80;;;1.70;;
37609;SDS011;23457;51.966;8.230;2022-07-05T06:13:59;4.50;;;2.03;;
37609;SDS011;23457;51.966;8.230;2022-07-05T06:16:25;4.53;;;2.05;;
37609;SDS011;23457;51.966;8.230;2022-07-05T06:18:52;4.13;;;2.13;;
37609;SDS011;23457;51.966;8.230;2022-07-05T06:21:19;3.22;;;1.92;;
37609;SDS011;23457;51.966;8.230;2022-07-05T06:23:45;5.28;;;2.30;;
37609;SDS011;23457;51.966;8.230;2022-07-05T06:26:12;7.82;;;2.17;;
37609;SDS011;23457;51.966;8.230;2022-07-05T06:28:38;4.07;;;2.00;;
37609;SDS011;23457;51.966;8.230;2022-07-05T06:31:05;1.92;;;1.65;;
37609;SDS011;23457;51.966;8.230;2022-07-05T06:33:31;4.57;;;1.60;;
37609;SDS011;23457;51.966;8.230;2022-07-05T06:35:58;3.53;;;1.80;;
37609;SDS011;23457;51.966;8.230;2022-07-05T06:38:24;2.78;;;2.03;;
37609;SDS011;23457;51.966;8.230;2022-07-05T06:40:51;7.40;;;2.15;;
37609;SDS011;23457;51.966;8.230;2022-07-05T06:43:18;3.25;;;1.88;;
37609;SDS011;23457;51.966;8.230;2022-07-05T06:45:45;3.63;;;1.80;;
37609;SDS011;23457;51.966;8.230;2022-07-05T06:48:12;5.13;;;1.60;;
37609;SDS011;23457;51.966;8.230;2022-07-05T06:50:39;6.07;;;1.55;;
37609;SDS011;23457;51.966;8.230;2022-07-05T06:53:07;3.92;;;1.70;;
37609;SDS011;23457;51.966;8.230;2022-07-05T06:55:34;5.13;;;1.70;;
37609;SDS011;23457;51.966;8.230;2022-07-05T06:58:02;4.05;;;1.80;;
37609;SDS011;23457;51.966;8.230;2022-07-05T07:00:39;7.57;;;1.67;;
37609;SDS011;23457;51.966;8.230;2022-07-05T07:03:26;6.35;;;1.52;;
37609;SDS011;23457;51.966;8.230;2022-07-05T07:06:13;4.32;;;1.23;;
37609;SDS011;23457;51.966;8.230;2022-07-05T07:08:40;7.93;;;1.13;;
37609;SDS011;23457;51.966;8.230;2022-07-05T07:11:25;3.28;;;1.10;;
37609;SDS011;23457;51.966;8.230;2022-07-05T07:13:52;3.40;;;0.90;;
37609;SDS011;23457;51.966;8.230;2022-07-05T07:16:18;2.58;;;1.08;;
37609;SDS011;23457;51.966;8.230;2022-07-05T07:18:45;3.00;;;1.00;;
37609;SDS011;23457;51.966;8.230;2022-07-05T07:21:31;4.28;;;1.02;;
37609;SDS011;23457;51.966;8.230;2022-07-05T07:23:58;1.75;;;0.90;;
37609;SDS011;23457;51.966;8.230;2022-07-05T07:26:24;6.05;;;1.23;;
37609;SDS011;23457;51.966;8.230;2022-07-05T07:28:51;4.50;;;1.20;;
37609;SDS011;23457;51.966;8.230;2022-07-05T07:31:17;4.00;;;1.25;;
37609;SDS011;23457;51.966;8.230;2022-07-05T07:33:44;2.17;;;1.17;;
37609;SDS011;23457;51.966;8.230;2022-07-05T07:36:11;4.57;;;1.55;;
37609;SDS011;23457;51.966;8.230;2022-07-05T07:38:41;4.55;;;0.90;;
37609;SDS011;23457;51.966;8.230;2022-07-05T07:41:07;3.25;;;1.30;;
37609;SDS011;23457;51.966;8.230;2022-07-05T07:43:34;4.43;;;0.77;;
37609;SDS011;23457;51.966;8.230;2022-07-05T07:46:00;2.25;;;0.75;;
37609;SDS011;23457;51.966;8.230;2022-07-05T07:48:27;5.95;;;1.10;;
37609;SDS011;23457;51.966;8.230;2022-07-05T07:50:55;3.60;;;0.60;;
37609;SDS011;23457;51.966;8.230;2022-07-05T07:53:22;4.68;;;1.10;;
37609;SDS011;23457;51.966;8.230;2022-07-05T07:55:48;3.10;;;0.80;;
37609;SDS011;23457;51.966;8.230;2022-07-05T07:58:15;1.83;;;1.13;;
37609;SDS011;23457;51.966;8.230;2022-07-05T08:00:42;2.63;;;1.00;;
37609;SDS011;23457;51.966;8.230;2022-07-05T08:03:08;2.92;;;1.00;;
37609;SDS011;23457;51.966;8.230;2022-07-05T08:05:35;1.75;;;1.02;;
37609;SDS011;23457;51.966;8.230;2022-07-05T08:08:01;2.10;;;0.73;;
37609;SDS011;23457;51.966;8.230;2022-07-05T08:10:28;4.07;;;0.95;;
37609;SDS011;23457;51.966;8.230;2022-07-05T08:12:55;4.35;;;0.90;;
37609;SDS011;23457;51.966;8.230;2022-07-05T08:15:21;2.40;;;0.70;;
37609;SDS011;23457;51.966;8.230;2022-07-05T08:17:48;2.00;;;0.70;;
37609;SDS011;23457;51.966;8.230;2022-07-05T08:20:33;1.40;;;0.70;;
37609;SDS011;23457;51.966;8.230;2022-07-05T08:23:19;2.45;;;0.70;;
37609;SDS011;23457;51.966;8.230;2022-07-05T08:25:45;2.97;;;1.00;;
37609;SDS011;23457;51.966;8.230;2022-07-05T08:28:11;2.33;;;0.52;;
37609;SDS011;23457;51.966;8.230;2022-07-05T08:30:38;2.28;;;0.63;;
37609;SDS011;23457;51.966;8.230;2022-07-05T08:33:05;1.05;;;0.60;;
37609;SDS011;23457;51.966;8.230;2022-07-05T08:35:31;1.08;;;0.70;;
37609;SDS011;23457;51.966;8.230;2022-07-05T08:37:58;2.60;;;0.90;;
37609;SDS011;23457;51.966;8.230;2022-07-05T08:40:25;4.43;;;0.80;;
37609;SDS011;23457;51.966;8.230;2022-07-05T08:42:55;1.63;;;0.70;;
37609;SDS011;23457;51.966;8.230;2022-07-05T08:45:24;3.13;;;0.82;;
37609;SDS011;23457;51.966;8.230;2022-07-05T08:47:53;0.83;;;0.60;;
37609;SDS011;23457;51.966;8.230;2022-07-05T08:50:22;3.53;;;0.90;;
37609;SDS011;23457;51.966;8.230;2022-07-05T08:52:50;1.80;;;0.75;;
37609;SDS011;23457;51.966;8.230;2022-07-05T08:55:17;2.80;;;0.90;;
37609;SDS011;23457;51.966;8.230;2022-07-05T08:57:44;2.25;;;0.80;;
37609;SDS011;23457;51.966;8.230;2022-07-05T09:00:11;3.15;;;0.85;;
37609;SDS011;23457;51.966;8.230;2022-07-05T09:02:38;11.30;;;0.90;;
37609;SDS011;23457;51.966;8.230;2022-07-05T09:05:04;6.07;;;0.88;;
37609;SDS011;23457;51.966;8.230;2022-07-05T09:07:32;0.70;;;0.70;;
37609;SDS011;23457;51.966;8.230;2022-07-05T09:10:02;5.88;;;0.93;;
37609;SDS011;23457;51.966;8.230;2022-07-05T09:12:30;1.88;;;0.80;;
37609;SDS011;23457;51.966;8.230;2022-07-05T09:14:56;5.70;;;0.95;;
37609;SDS011;23457;51.966;8.230;2022-07-05T09:17:23;1.80;;;0.90;;
37609;SDS011;23457;51.966;8.230;2022-07-05T09:20:09;1.80;;;0.90;;
37609;SDS011;23457;51.966;8.230;2022-07-05T09:25:13;8.40;;;1.08;;
37609;SDS011;23457;51.966;8.230;2022-07-05T09:28:14;2.13;;;0.88;;
37609;SDS011;23457;51.966;8.230;2022-07-05T09:30:34;3.88;;;0.98;;
37609;SDS011;23457;51.966;8.230;2022-07-05T09:33:12;13.38;;;1.10;;
37609;SDS011;23457;51.966;8.230;2022-07-05T09:35:44;2.95;;;1.10;;
37609;SDS011;23457;51.966;8.230;2022-07-05T09:38:28;11.77;;;1.70;;
37609;SDS011;23457;51.966;8.230;2022-07-05T09:40:58;3.10;;;1.42;;
37609;SDS011;23457;51.966;8.230;2022-07-05T09:43:27;6.47;;;1.00;;
37609;SDS011;23457;51.966;8.230;2022-07-05T09:45:56;2.93;;;1.13;;
37609;SDS011;23457;51.966;8.230;2022-07-05T09:48:29;5.65;;;1.17;;
37609;SDS011;23457;51.966;8.230;2022-07-05T09:51:11;1.10;;;0.80;;
37609;SDS011;23457;51.966;8.230;2022-07-05T09:53:59;12.38;;;2.47;;
37609;SDS011;23457;51.966;8.230;2022-07-05T09:56:42;0.80;;;0.60;;
37609;SDS011;23457;51.966;8.230;2022-07-05T09:59:17;4.13;;;1.10;;
37609;SDS011;23457;51.966;8.230;2022-07-05T10:01:46;3.03;;;1.08;;
37609;SDS011;23457;51.966;8.230;2022-07-05T10:04:13;4.22;;;1.20;;
37609;SDS011;23457;51.966;8.230;2022-07-05T10:06:40;6.07;;;1.70;;
37609;SDS011;23457;51.966;8.230;2022-07-05T10:09:09;2.17;;;0.90;;
37609;SDS011;23457;51.966;8.230;2022-07-05T10:11:40;4.05;;;1.30;;
37609;SDS011;23457;51.966;8.230;2022-07-05T10:14:14;5.75;;;1.00;;
37609;SDS011;23457;51.966;8.230;2022-07-05T10:16:45;4.03;;;1.00;;
37609;SDS011;23457;51.966;8.230;2022-07-05T10:19:15;5.57;;;1.23;;
37609;SDS011;23457;51.966;8.230;2022-07-05T10:21:46;2.40;;;1.00;;
37609;SDS011;23457;51.966;8.230;2022-07-05T10:24:33;2.58;;;1.38;;
37609;SDS011;23457;51.966;8.230;2022-07-05T10:27:03;3.53;;;1.45;;
37609;SDS011;23457;51.966;8.230;2022-07-05T10:29:32;1.25;;;0.93;;
37609;SDS011;23457;51.966;8.230;2022-07-05T10:32:01;4.55;;;1.17;;
37609;SDS011;23457;51.966;8.230;2022-07-05T10:34:29;2.53;;;0.95;;
37609;SDS011;23457;51.966;8.230;2022-07-05T10:37:18;3.65;;;0.90;;
37609;SDS011;23457;51.966;8.230;2022-07-05T10:39:45;3.60;;;1.48;;
37609;SDS011;23457;51.966;8.230;2022-07-05T10:42:12;2.50;;;1.00;;
37609;SDS011;23457;51.966;8.230;2022-07-05T10:44:40;1.90;;;1.00;;
37609;SDS011;23457;51.966;8.230;2022-07-05T10:47:10;2.75;;;1.00;;
37609;SDS011;23457;51.966;8.230;2022-07-05T10:49:37;3.97;;;0.95;;
37609;SDS011;23457;51.966;8.230;2022-07-05T10:52:05;6.15;;;1.10;;
37609;SDS011;23457;51.966;8.230;2022-07-05T10:57:43;4.40;;;0.85;;
37609;SDS011;23457;51.966;8.230;2022-07-05T11:00:10;3.58;;;0.93;;
37609;SDS011;23457;51.966;8.230;2022-07-05T11:02:37;4.50;;;0.90;;
37609;SDS011;23457;51.966;8.230;2022-07-05T11:05:04;4.38;;;1.17;;
37609;SDS011;23457;51.966;8.230;2022-07-05T11:08:04;0.95;;;0.73;;
37609;SDS011;23457;51.966;8.230;2022-07-05T11:10:31;4.50;;;0.90;;
37609;SDS011;23457;51.966;8.230;2022-07-05T11:12:58;3.00;;;0.85;;
37609;SDS011;23457;51.966;8.230;2022-07-05T11:15:25;1.90;;;0.80;;
37609;SDS011;23457;51.966;8.230;2022-07-05T11:18:13;1.75;;;0.70;;
37609;SDS011;23457;51.966;8.230;2022-07-05T11:20:42;3.45;;;0.88;;
37609;SDS011;23457;51.966;8.230;2022-07-05T11:23:10;2.83;;;0.77;;
37609;SDS011;23457;51.966;8.230;2022-07-05T11:25:39;1.98;;;0.70;;
37609;SDS011;23457;51.966;8.230;2022-07-05T11:28:08;3.53;;;0.90;;
37609;SDS011;23457;51.966;8.230;2022-07-05T11:30:46;3.33;;;0.77;;
37609;SDS011;23457;51.966;8.230;2022-07-05T11:33:34;1.48;;;1.00;;
37609;SDS011;23457;51.966;8.230;2022-07-05T11:36:04;0.98;;;0.77;;
37609;SDS011;23457;51.966;8.230;2022-07-05T11:38:33;2.65;;;0.75;;
37609;SDS011;23457;51.966;8.230;2022-07-05T11:41:20;2.88;;;0.80;;
37609;SDS011;23457;51.966;8.230;2022-07-05T11:43:54;2.80;;;0.90;;
37609;SDS011;23457;51.966;8.230;2022-07-05T11:46:22;7.95;;;1.17;;
37609;SDS011;23457;51.966;8.230;2022-07-05T11:49:09;1.70;;;0.80;;
37609;SDS011;23457;51.966;8.230;2022-07-05T11:51:36;2.15;;;0.70;;
37609;SDS011;23457;51.966;8.230;2022-07-05T11:54:03;2.28;;;0.80;;
37609;SDS011;23457;51.966;8.230;2022-07-05T11:56:43;3.33;;;1.40;;
37609;SDS011;23457;51.966;8.230;2022-07-05T11:59:19;1.40;;;0.77;;
37609;SDS011;23457;51.966;8.230;2022-07-05T12:01:47;3.33;;;0.90;;
37609;SDS011;23457;51.966;8.230;2022-07-05T12:04:47;2.15;;;0.80;;
37609;SDS011;23457;51.966;8.230;2022-07-05T12:07:06;2.85;;;0.60;;
37609;SDS011;23457;51.966;8.230;2022-07-05T12:09:33;4.43;;;0.80;;
37609;SDS011;23457;51.966;8.230;2022-07-05T12:12:19;2.50;;;0.95;;
37609;SDS011;23457;51.966;8.230;2022-07-05T12:15:06;4.13;;;1.10;;
37609;SDS011;23457;51.966;8.230;2022-07-05T12:17:34;2.10;;;0.77;;
37609;SDS011;23457;51.966;8.230;2022-07-05T12:20:01;5.55;;;0.82;;
37609;SDS011;23457;51.966;8.230;2022-07-05T12:22:30;3.28;;;0.75;;
37609;SDS011;23457;51.966;8.230;2022-07-05T12:25:01;3.78;;;1.38;;
37609;SDS011;23457;51.966;8.230;2022-07-05T12:27:29;1.50;;;0.70;;
37609;SDS011;23457;51.966;8.230;2022-07-05T12:29:57;1.17;;;0.77;;
37609;SDS011;23457;51.966;8.230;2022-07-05T12:32:25;5.13;;;0.73;;
37609;SDS011;23457;51.966;8.230;2022-07-05T12:34:52;3.38;;;0.90;;
37609;SDS011;23457;51.966;8.230;2022-07-05T12:37:22;1.75;;;0.80;;
37609;SDS011;23457;51.966;8.230;2022-07-05T12:40:05;3.88;;;1.25;;
37609;SDS011;23457;51.966;8.230;2022-07-05T12:42:34;1.48;;;0.80;;
37609;SDS011;23457;51.966;8.230;2022-07-05T12:45:08;2.08;;;0.77;;
37609;SDS011;23457;51.966;8.230;2022-07-05T12:47:47;2.22;;;0.95;;
37609;SDS011;23457;51.966;8.230;2022-07-05T12:50:24;1.80;;;1.02;;
37609;SDS011;23457;51.966;8.230;2022-07-05T12:53:01;1.90;;;0.88;;
37609;SDS011;23457;51.966;8.230;2022-07-05T12:55:57;1.73;;;0.75;;
37609;SDS011;23457;51.966;8.230;2022-07-05T13:01:30;2.08;;;1.00;;
37609;SDS011;23457;51.966;8.230;2022-07-05T13:14:34;3.80;;;0.90;;
37609;SDS011;23457;51.966;8.230;2022-07-05T13:17:02;1.20;;;0.98;;
37609;SDS011;23457;51.966;8.230;2022-07-05T13:19:29;5.57;;;1.00;;
37609;SDS011;23457;51.966;8.230;2022-07-05T13:21:56;2.80;;;0.90;;
37609;SDS011;23457;51.966;8.230;2022-07-05T13:24:22;1.95;;;1.00;;
37609;SDS011;23457;51.966;8.230;2022-07-05T13:26:49;3.72;;;0.90;;
37609;SDS011;23457;51.966;8.230;2022-07-05T13:29:15;4.18;;;1.17;;
37609;SDS011;23457;51.966;8.230;2022-07-05T13:31:42;2.45;;;1.00;;
37609;SDS011;23457;51.966;8.230;2022-07-05T13:34:09;3.75;;;1.42;;
37609;SDS011;23457;51.966;8.230;2022-07-05T13:36:35;3.65;;;1.00;;
37609;SDS011;23457;51.966;8.230;2022-07-05T13:39:02;2.38;;;1.20;;
37609;SDS011;23457;51.966;8.230;2022-07-05T13:41:29;3.42;;;1.05;;
37609;SDS011;23457;51.966;8.230;2022-07-05T13:43:56;1.77;;;0.90;;
37609;SDS011;23457;51.966;8.230;2022-07-05T13:46:22;3.85;;;1.25;;
37609;SDS011;23457;51.966;8.230;2022-07-05T13:48:49;2.42;;;0.95;;
37609;SDS011;23457;51.966;8.230;2022-07-05T13:51:16;6.35;;;1.45;;
37609;SDS011;23457;51.966;8.230;2022-07-05T13:53:42;3.40;;;1.10;;
37609;SDS011;23457;51.966;8.230;2022-07-05T13:56:09;2.20;;;1.23;;
37609;SDS011;23457;51.966;8.230;2022-07-05T13:58:35;3.42;;;1.23;;
37609;SDS011;23457;51.966;8.230;2022-07-05T14:01:02;1.75;;;1.10;;
37609;SDS011;23457;51.966;8.230;2022-07-05T14:03:29;2.85;;;1.20;;
37609;SDS011;23457;51.966;8.230;2022-07-05T14:05:56;1.35;;;1.10;;
37609;SDS011;23457;51.966;8.230;2022-07-05T14:08:23;1.88;;;1.00;;
37609;SDS011;23457;51.966;8.230;2022-07-05T14:10:50;2.67;;;1.20;;
37609;SDS011;23457;51.966;8.230;2022-07-05T14:13:19;1.30;;;0.80;;
37609;SDS011;23457;51.966;8.230;2022-07-05T14:15:47;2.80;;;1.20;;
37609;SDS011;23457;51.966;8.230;2022-07-05T14:18:15;3.55;;;1.05;;
37609;SDS011;23457;51.966;8.230;2022-07-05T14:20:43;3.58;;;1.10;;
37609;SDS011;23457;51.966;8.230;2022-07-05T14:23:10;2.15;;;1.10;;
37609;SDS011;23457;51.966;8.230;2022-07-05T14:25:38;4.70;;;1.40;;
37609;SDS011;23457;51.966;8.230;2022-07-05T14:28:05;3.38;;;1.20;;
37609;SDS011;23457;51.966;8.230;2022-07-05T14:30:43;2.50;;;1.17;;
37609;SDS011;23457;51.966;8.230;2022-07-05T14:33:11;3.28;;;1.10;;
37609;SDS011;23457;51.966;8.230;2022-07-05T14:35:40;2.15;;;1.17;;
37609;SDS011;23457;51.966;8.230;2022-07-05T14:38:07;3.17;;;0.90;;
37609;SDS011;23457;51.966;8.230;2022-07-05T14:40:34;2.92;;;1.10;;
37609;SDS011;23457;51.966;8.230;2022-07-05T14:43:01;1.23;;;1.13;;
37609;SDS011;23457;51.966;8.230;2022-07-05T14:45:28;4.63;;;1.70;;
37609;SDS011;23457;51.966;8.230;2022-07-05T14:47:55;1.20;;;1.10;;
37609;SDS011;23457;51.966;8.230;2022-07-05T14:50:22;6.13;;;1.20;;
37609;SDS011;23457;51.966;8.230;2022-07-05T14:52:49;4.07;;;1.35;;
37609;SDS011;23457;51.966;8.230;2022-07-05T14:55:17;1.50;;;1.05;;
37609;SDS011;23457;51.966;8.230;2022-07-05T14:57:43;1.60;;;0.80;;
37609;SDS011;23457;51.966;8.230;2022-07-05T15:00:11;1.95;;;1.00;;
37609;SDS011;23457;51.966;8.230;2022-07-05T15:05:07;2.65;;;1.35;;
37609;SDS011;23457;51.966;8.230;2022-07-05T15:07:35;2.35;;;0.68;;
37609;SDS011;23457;51.966;8.230;2022-07-05T15:10:02;2.28;;;1.10;;
37609;SDS011;23457;51.966;8.230;2022-07-05T15:12:29;5.18;;;1.17;;
37609;SDS011;23457;51.966;8.230;2022-07-05T15:14:55;2.03;;;1.00;;
37609;SDS011;23457;51.966;8.230;2022-07-05T15:17:24;2.25;;;1.00;;
37609;SDS011;23457;51.966;8.230;2022-07-05T15:19:51;6.60;;;1.10;;